Martinton, IL (60951)

8:44 PM CST on February 09, 2016 (GMT -0600)
2 miles S of L'Erable E of | | Change Station
CLOSE
Current Station
Personal Weather Station
Location: Ashkum, IL
Elevation: 625 ft
Nearby Weather Stations

Elev 625 ft 40.88 °N, 87.85 °W | Updated 9 seconds ago

Overcast
Overcast
15.6 °F
Feels Like 1 °F
N
14.0
Wind Variable Wind from NW
Gusts 19.0 mph

Today
High -- | Low -- °F
--% Chance of Precip.
Yesterday
High -- | Low -- °F
Precip. -- in
Pressure 29.97 in
Visibility 10.0 miles
Clouds Scattered Clouds 2500 ft
Scattered Clouds 3800 ft
Overcast 7000 ft
Windchill 1 °F
Dew Point 12 °F
Humidity 84%
Rainfall 0.00 in
Snow Depth Not available.
6:53 AM 5:17 PM
Waxing Crescent, 3% visible
METAR KIKK 100235Z AUTO 30013G16KT 10SM UP SCT025 SCT038 OVC070 M09/M13 A2997 RMK AO2 T10891130
Pressure 29.97 in
Visibility 10.0 miles
Clouds Scattered Clouds 2500 ft
Scattered Clouds 3800 ft
Overcast 7000 ft
Windchill 1 °F
Dew Point 12 °F
Humidity 84%
Rainfall 0.00 in
Snow Depth Not available.
6:53 AM 5:17 PM
Waxing Crescent, 3% visible
METAR KIKK 100235Z AUTO 30013G16KT 10SM UP SCT025 SCT038 OVC070 M09/M13 A2997 RMK AO2 T10891130

10-Day Weather Forecast

Almanac

Astronomy

Feb. 09, 2016 Rise Set
Actual Time
Civil Twilight
Nautical Twilight
Astronomical Twilight
Moon
Length of Visible Light
Length of Day
Tomorrow will be .
, % of the Moon is Illuminated

Today's Extremes

State Highs State Lows

Community

WunderPhotos

Upload Photos

1,891,786 photos uploaded!

WunderBlog® & News

Nearby

Air Quality

  Air Quality AQ Index Pollutant
Not available.

Snow Depth

Station Depth Elevation

Earthquake Activity

City Distance Mag. Time & Date
Minimum magnitude displayed is 2.5.

Coastal Water Temperatures

Place Temperature

Stations

Nearby Weather Stations

Station Location Temp. Windchill Dew Point Humidity Wind Precip. Elev Updated Type
                   

Watches & Warnings

There are currently no watches in effect.